createdAt,value
2022-12-15T00:00:18.860Z,922.16
2022-12-15T00:01:19.857Z,922.16
2022-12-15T00:02:20.423Z,922.21
2022-12-15T00:03:21.058Z,922.21
2022-12-15T00:04:21.313Z,922.21
2022-12-15T00:05:22.142Z,922.18
2022-12-15T00:06:22.842Z,922.18
2022-12-15T00:07:23.759Z,922.16
2022-12-15T00:08:23.959Z,922.12
2022-12-15T00:09:27.848Z,922.11
2022-12-15T00:10:24.898Z,922.14
2022-12-15T00:11:25.825Z,922.12
2022-12-15T00:12:26.716Z,922.09
2022-12-15T00:13:27.077Z,922.07
2022-12-15T00:14:27.965Z,922.05
2022-12-15T00:15:28.923Z,922.04
2022-12-15T00:16:29.666Z,922.03
2022-12-15T00:17:30.066Z,922.08
2022-12-15T00:18:30.706Z,922.11
2022-12-15T00:19:31.384Z,922.13
2022-12-15T00:20:31.911Z,922.12
2022-12-15T00:21:32.396Z,922.09
2022-12-15T00:22:33.000Z,922.09
2022-12-15T00:23:33.605Z,922.13
2022-12-15T00:24:33.409Z,922.09
2022-12-15T00:25:33.739Z,922.08
2022-12-15T00:26:34.369Z,922.06
2022-12-15T00:27:34.835Z,922.09
2022-12-15T00:28:35.725Z,922.09
2022-12-15T00:29:35.907Z,921.99
2022-12-15T00:30:36.243Z,921.98
2022-12-15T00:31:36.483Z,921.94
2022-12-15T00:32:37.155Z,921.91
2022-12-15T00:33:37.502Z,921.94
2022-12-15T00:34:37.870Z,921.86
2022-12-15T00:35:38.074Z,921.87
2022-12-15T00:36:38.983Z,921.86
2022-12-15T00:37:39.731Z,921.87
2022-12-15T00:38:40.220Z,921.86
2022-12-15T00:39:40.693Z,921.97
2022-12-15T00:40:41.309Z,922.04
2022-12-15T00:41:41.521Z,922.07
2022-12-15T00:42:42.136Z,922.06
2022-12-15T00:43:42.811Z,922.09
2022-12-15T00:44:43.703Z,922.09
2022-12-15T00:45:43.887Z,922.05
2022-12-15T00:46:44.658Z,922.05
2022-12-15T00:47:44.882Z,922
2022-12-15T00:48:45.786Z,921.99
2022-12-15T00:49:46.342Z,921.94
2022-12-15T00:50:46.531Z,921.87
2022-12-15T00:51:47.063Z,921.83
2022-12-15T00:52:47.975Z,921.82
2022-12-15T00:53:48.896Z,921.86
2022-12-15T00:54:49.533Z,921.93
2022-12-15T00:55:49.725Z,921.95
2022-12-15T00:56:50.042Z,922
2022-12-15T00:57:50.745Z,922.07
2022-12-15T00:58:51.376Z,922.12
2022-12-15T00:59:51.999Z,922.1
2022-12-15T01:00:52.221Z,922.08
2022-12-15T01:01:53.278Z,922.12
2022-12-15T01:02:54.315Z,922.14
2022-12-15T01:03:54.502Z,922.12
2022-12-15T01:04:55.155Z,922.16
2022-12-15T01:05:56.206Z,922.12
2022-12-15T01:06:56.691Z,922.15
2022-12-15T01:07:56.994Z,922.16
2022-12-15T01:08:57.195Z,922.16
2022-12-15T01:09:58.115Z,922.17
2022-12-15T01:10:58.337Z,922.21
2022-12-15T01:11:58.540Z,922.23
2022-12-15T01:12:58.869Z,922.29
2022-12-15T01:13:59.789Z,922.3
2022-12-15T01:14:59.993Z,922.35
2022-12-15T01:16:00.296Z,922.38
2022-12-15T01:17:01.280Z,922.37
2022-12-15T01:18:02.018Z,922.42
2022-12-15T01:19:02.915Z,922.41
2022-12-15T01:20:03.064Z,922.44
2022-12-15T01:21:03.678Z,922.46
2022-12-15T01:22:04.351Z,922.44
2022-12-15T01:23:05.260Z,922.43
2022-12-15T01:24:06.171Z,922.44
2022-12-15T01:25:06.360Z,922.4
2022-12-15T01:26:06.843Z,922.36
2022-12-15T01:27:07.755Z,922.43
2022-12-15T01:28:08.775Z,922.36
2022-12-15T01:29:09.000Z,922.35
2022-12-15T01:30:09.495Z,922.31
2022-12-15T01:31:09.713Z,922.29
2022-12-15T01:32:10.211Z,922.31
2022-12-15T01:33:10.859Z,922.33
2022-12-15T01:34:11.861Z,922.3
2022-12-15T01:35:12.429Z,922.31
2022-12-15T01:36:13.380Z,922.29
2022-12-15T01:37:13.993Z,922.25
2022-12-15T01:38:14.270Z,922.26
2022-12-15T01:39:14.749Z,922.27
2022-12-15T01:40:15.665Z,922.19
2022-12-15T01:41:16.279Z,922.26
2022-12-15T01:42:16.761Z,922.32
2022-12-15T01:43:16.947Z,922.38
2022-12-15T01:44:17.798Z,922.36
2022-12-15T01:45:18.574Z,922.38
2022-12-15T01:46:18.785Z,922.44
2022-12-15T01:47:19.709Z,922.49
2022-12-15T01:48:20.490Z,922.47
2022-12-15T01:49:20.668Z,922.41
2022-12-15T01:50:21.158Z,922.4
2022-12-15T01:51:21.344Z,922.49
2022-12-15T01:52:22.255Z,922.58
2022-12-15T01:53:22.873Z,922.55
2022-12-15T01:54:23.811Z,922.36
2022-12-15T01:55:23.998Z,922.24
2022-12-15T01:56:24.480Z,922.23
2022-12-15T01:57:25.344Z,922.35
2022-12-15T01:58:26.264Z,922.46
2022-12-15T01:59:26.600Z,922.44
2022-12-15T02:00:27.257Z,922.35
2022-12-15T02:01:27.850Z,922.36
2022-12-15T02:02:28.528Z,922.45
2022-12-15T02:03:29.576Z,922.47
2022-12-15T02:04:29.147Z,922.45
2022-12-15T02:05:29.717Z,922.47
2022-12-15T02:06:30.333Z,922.41
2022-12-15T02:07:31.255Z,922.4
2022-12-15T02:08:32.276Z,922.41
2022-12-15T02:09:33.189Z,922.45
2022-12-15T02:10:33.399Z,922.58
2022-12-15T02:11:33.606Z,922.56
2022-12-15T02:12:34.532Z,922.54
2022-12-15T02:13:35.446Z,922.63
2022-12-15T02:14:35.856Z,922.62
2022-12-15T02:15:36.468Z,922.67
2022-12-15T02:16:36.792Z,922.65
2022-12-15T02:17:37.250Z,922.7
2022-12-15T02:18:38.281Z,922.74
2022-12-15T02:19:38.461Z,922.71
2022-12-15T02:20:38.798Z,922.64
2022-12-15T02:21:39.697Z,922.65
2022-12-15T02:22:39.896Z,922.63
2022-12-15T02:23:40.813Z,922.72
2022-12-15T02:24:41.000Z,922.74
2022-12-15T02:25:41.782Z,922.74
2022-12-15T02:26:42.244Z,922.71
2022-12-15T02:27:42.731Z,922.7
2022-12-15T02:28:42.865Z,922.73
2022-12-15T02:29:43.180Z,922.73
2022-12-15T02:30:43.380Z,922.78
2022-12-15T02:31:44.341Z,922.81
2022-12-15T02:32:45.311Z,922.8
2022-12-15T02:33:46.018Z,922.75
2022-12-15T02:34:46.928Z,922.75
2022-12-15T02:35:47.199Z,922.75
2022-12-15T02:36:48.121Z,922.68
2022-12-15T02:37:49.648Z,922.68
2022-12-15T02:38:49.211Z,922.7
2022-12-15T02:39:49.825Z,922.71
2022-12-15T02:40:50.734Z,922.68
2022-12-15T02:41:51.363Z,922.74
2022-12-15T02:42:52.004Z,922.74
2022-12-15T02:43:52.192Z,922.74
2022-12-15T02:44:52.389Z,922.73
2022-12-15T02:45:52.628Z,922.72
2022-12-15T02:46:53.195Z,922.69
2022-12-15T02:47:53.830Z,922.76
2022-12-15T02:48:54.154Z,922.78
2022-12-15T02:49:55.064Z,922.82
2022-12-15T02:50:55.399Z,922.84
2022-12-15T02:51:55.777Z,922.76
2022-12-15T02:52:56.819Z,922.75
2022-12-15T02:53:57.709Z,922.77
2022-12-15T02:54:58.637Z,922.81
2022-12-15T02:55:59.553Z,922.79
2022-12-15T02:56:59.761Z,922.72
2022-12-15T02:58:00.381Z,922.75
2022-12-15T02:59:00.782Z,922.79
2022-12-15T03:00:00.970Z,922.82
2022-12-15T03:01:01.560Z,922.76
2022-12-15T03:02:01.783Z,922.74
2022-12-15T03:03:02.173Z,922.77
2022-12-15T03:04:02.866Z,922.71
2022-12-15T03:05:03.767Z,922.71
2022-12-15T03:06:04.334Z,922.73
2022-12-15T03:07:04.538Z,922.77
2022-12-15T03:08:04.727Z,922.73
2022-12-15T03:09:05.043Z,922.82
2022-12-15T03:10:05.935Z,922.81
2022-12-15T03:11:06.553Z,922.78
2022-12-15T03:12:07.461Z,922.85
2022-12-15T03:13:07.671Z,922.88
2022-12-15T03:14:08.311Z,922.96
2022-12-15T03:15:08.651Z,922.95
2022-12-15T03:16:09.017Z,923.04
2022-12-15T03:17:09.355Z,923.08
2022-12-15T03:18:10.266Z,923.09
2022-12-15T03:19:11.285Z,923.1
2022-12-15T03:20:11.485Z,923.12
2022-12-15T03:21:11.818Z,923.09
2022-12-15T03:22:12.434Z,923.17
2022-12-15T03:23:12.931Z,923.23
2022-12-15T03:24:13.579Z,923.16
2022-12-15T03:25:13.793Z,923.11
2022-12-15T03:26:14.423Z,923.17
2022-12-15T03:27:15.318Z,923.22
2022-12-15T03:28:15.932Z,923.24
2022-12-15T03:29:16.342Z,923.29
2022-12-15T03:30:16.572Z,923.23
2022-12-15T03:31:16.795Z,923.26
2022-12-15T03:32:17.834Z,923.29
2022-12-15T03:33:18.781Z,923.3
2022-12-15T03:34:19.482Z,923.31
2022-12-15T03:35:19.660Z,923.27
2022-12-15T03:36:20.208Z,923.28
2022-12-15T03:37:20.546Z,923.32
2022-12-15T03:38:21.176Z,923.29
2022-12-15T03:39:21.617Z,923.34
2022-12-15T03:40:22.251Z,923.32
2022-12-15T03:41:23.161Z,923.34
2022-12-15T03:42:23.349Z,923.34
2022-12-15T03:43:24.260Z,923.33
2022-12-15T03:44:24.675Z,923.28
2022-12-15T03:45:24.883Z,923.28
2022-12-15T03:46:25.852Z,923.19
2022-12-15T03:47:25.893Z,923.26
2022-12-15T03:48:26.094Z,923.27
2022-12-15T03:49:26.860Z,923.31
2022-12-15T03:50:27.195Z,923.28
2022-12-15T03:51:27.763Z,923.28
2022-12-15T03:52:28.350Z,923.24
2022-12-15T03:53:28.932Z,923.26
2022-12-15T03:54:29.629Z,923.26
2022-12-15T03:55:30.120Z,923.31
2022-12-15T03:56:30.757Z,923.35
2022-12-15T03:57:30.974Z,923.35
2022-12-15T03:58:31.179Z,923.34
2022-12-15T03:59:31.473Z,923.3
2022-12-15T04:00:32.099Z,923.29
2022-12-15T04:01:32.583Z,923.26
2022-12-15T04:02:32.758Z,923.27
2022-12-15T04:03:33.530Z,923.3
2022-12-15T04:04:33.831Z,923.33
2022-12-15T04:05:34.321Z,923.31
2022-12-15T04:06:34.868Z,923.33
2022-12-15T04:07:35.049Z,923.39
2022-12-15T04:08:35.658Z,923.42
2022-12-15T04:09:35.968Z,923.45
2022-12-15T04:10:36.151Z,923.43
2022-12-15T04:11:36.636Z,923.49
2022-12-15T04:12:36.826Z,923.48
2022-12-15T04:13:37.738Z,923.5
2022-12-15T04:14:37.942Z,923.51
2022-12-15T04:15:38.405Z,923.52
2022-12-15T04:16:38.938Z,923.51
2022-12-15T04:17:39.128Z,923.52
2022-12-15T04:18:39.659Z,923.52
2022-12-15T04:19:40.252Z,923.54
2022-12-15T04:20:40.879Z,923.53
2022-12-15T04:21:41.075Z,923.55
2022-12-15T04:22:42.003Z,923.59
2022-12-15T04:23:42.614Z,923.6
2022-12-15T04:24:42.819Z,923.73
2022-12-15T04:25:43.722Z,923.76
2022-12-15T04:26:44.779Z,923.69
2022-12-15T04:27:44.972Z,923.68
2022-12-15T04:28:45.411Z,923.66
2022-12-15T04:29:46.402Z,923.69
2022-12-15T04:30:46.686Z,923.58
2022-12-15T04:31:47.584Z,923.62
2022-12-15T04:32:49.890Z,923.57
2022-12-15T04:33:48.635Z,923.59
2022-12-15T04:34:49.557Z,923.56
2022-12-15T04:35:50.034Z,923.63
2022-12-15T04:36:50.389Z,923.59
2022-12-15T04:37:51.024Z,923.57
2022-12-15T04:38:51.225Z,923.56
2022-12-15T04:39:51.505Z,923.54
2022-12-15T04:40:52.405Z,923.54
2022-12-15T04:41:52.599Z,923.63
2022-12-15T04:42:52.790Z,923.65
2022-12-15T04:43:53.274Z,923.67
2022-12-15T04:44:54.182Z,923.66
2022-12-15T04:45:54.751Z,923.6
2022-12-15T04:46:55.653Z,923.62
2022-12-15T04:47:55.859Z,923.6
2022-12-15T04:48:56.789Z,923.61
2022-12-15T04:49:56.933Z,923.63
2022-12-15T04:50:57.407Z,923.64
2022-12-15T04:51:58.043Z,923.7
2022-12-15T04:52:58.956Z,923.75
2022-12-15T04:53:59.265Z,923.8
2022-12-15T04:55:00.176Z,923.84
2022-12-15T04:56:00.379Z,923.84
2022-12-15T04:57:00.699Z,923.85
2022-12-15T04:58:01.186Z,923.89
2022-12-15T04:59:01.720Z,923.82
2022-12-15T05:00:02.706Z,923.9
2022-12-15T05:01:03.687Z,923.91
2022-12-15T05:02:04.120Z,923.94
2022-12-15T05:03:04.575Z,923.92
2022-12-15T05:04:05.658Z,923.9
2022-12-15T05:05:06.671Z,923.88
2022-12-15T05:06:06.896Z,923.85
2022-12-15T05:07:07.535Z,923.88
2022-12-15T05:08:08.174Z,923.87
2022-12-15T05:09:08.379Z,923.82
2022-12-15T05:10:14.513Z,923.74
2022-12-15T05:11:09.059Z,923.75
2022-12-15T05:12:09.968Z,923.78
2022-12-15T05:13:10.170Z,923.72
2022-12-15T05:14:11.125Z,923.76
2022-12-15T05:15:11.734Z,923.77
2022-12-15T05:16:12.515Z,923.75
2022-12-15T05:17:13.222Z,923.72
2022-12-15T05:18:13.756Z,923.78
2022-12-15T05:19:14.392Z,923.82
2022-12-15T05:20:15.417Z,923.78
2022-12-15T05:21:16.355Z,923.79
2022-12-15T05:22:16.903Z,923.82
2022-12-15T05:23:17.094Z,923.84
2022-12-15T05:24:17.399Z,923.8
2022-12-15T05:25:18.062Z,923.78
2022-12-15T05:26:18.548Z,923.79
2022-12-15T05:27:18.746Z,923.82
2022-12-15T05:28:19.651Z,923.84
2022-12-15T05:29:19.858Z,923.86
2022-12-15T05:30:20.604Z,923.86
2022-12-15T05:31:20.808Z,923.87
2022-12-15T05:32:21.393Z,923.85
2022-12-15T05:33:22.278Z,923.9
2022-12-15T05:34:23.215Z,923.93
2022-12-15T05:35:24.142Z,923.91
2022-12-15T05:36:24.740Z,923.91
2022-12-15T05:37:25.189Z,923.93
2022-12-15T05:38:25.811Z,923.97
2022-12-15T05:39:26.019Z,924.01
2022-12-15T05:40:27.008Z,924.09
2022-12-15T05:41:27.491Z,924.09
2022-12-15T05:42:27.684Z,924.11
2022-12-15T05:43:28.761Z,924.12
2022-12-15T05:44:28.977Z,924.12
2022-12-15T05:45:29.604Z,924.13
2022-12-15T05:46:30.286Z,924.09
2022-12-15T05:47:30.436Z,924.08
2022-12-15T05:48:31.348Z,924.07
2022-12-15T05:49:31.965Z,924.13
2022-12-15T05:50:32.983Z,924.1
2022-12-15T05:51:33.099Z,924.17
2022-12-15T05:52:33.846Z,924.18
2022-12-15T05:53:34.656Z,924.17
2022-12-15T05:54:35.468Z,924.18
2022-12-15T05:55:35.676Z,924.19
2022-12-15T05:56:36.615Z,924.19
2022-12-15T05:57:37.563Z,924.15
2022-12-15T05:58:43.162Z,924.11
2022-12-15T05:59:38.433Z,924.11
2022-12-15T06:00:38.711Z,924.08
2022-12-15T06:01:38.947Z,924.07
2022-12-15T06:02:39.333Z,924.12
2022-12-15T06:03:40.019Z,924.16
2022-12-15T06:04:41.003Z,924.13
2022-12-15T06:05:41.942Z,924.12
2022-12-15T06:06:42.228Z,924.14
2022-12-15T06:07:42.792Z,924.12
2022-12-15T06:08:43.698Z,924.1
2022-12-15T06:09:44.302Z,924.15
2022-12-15T06:10:44.700Z,924.16
2022-12-15T06:11:44.902Z,924.16
2022-12-15T06:12:45.106Z,924.19
2022-12-15T06:13:45.317Z,924.18
2022-12-15T06:14:46.221Z,924.23
2022-12-15T06:15:46.799Z,924.29
2022-12-15T06:16:49.934Z,924.35
2022-12-15T06:17:49.505Z,924.33
2022-12-15T06:18:49.795Z,924.28
2022-12-15T06:19:50.265Z,924.31
2022-12-15T06:20:51.013Z,924.28
2022-12-15T06:21:51.898Z,924.31
2022-12-15T06:22:52.261Z,924.34
2022-12-15T06:23:52.884Z,924.31
2022-12-15T06:24:53.498Z,924.32
2022-12-15T06:25:53.991Z,924.31
2022-12-15T06:26:54.178Z,924.29
2022-12-15T06:27:58.433Z,924.33
2022-12-15T06:28:55.333Z,924.32
2022-12-15T06:29:55.525Z,924.35
2022-12-15T06:30:56.678Z,924.35
2022-12-15T06:31:56.810Z,924.3
2022-12-15T06:32:57.739Z,924.27
2022-12-15T06:34:01.975Z,924.26
2022-12-15T06:34:58.819Z,924.28
2022-12-15T06:35:59.053Z,924.31
2022-12-15T06:36:59.221Z,924.3
2022-12-15T06:37:59.480Z,924.32
2022-12-15T06:39:00.405Z,924.32
2022-12-15T06:40:01.325Z,924.27
2022-12-15T06:41:01.731Z,924.31
2022-12-15T06:42:01.921Z,924.3
2022-12-15T06:43:02.133Z,924.29
2022-12-15T06:44:02.621Z,924.29
2022-12-15T06:45:03.106Z,924.34
2022-12-15T06:46:03.998Z,924.34
2022-12-15T06:47:04.170Z,924.45
2022-12-15T06:48:05.185Z,924.45
2022-12-15T06:49:05.669Z,924.47
2022-12-15T06:50:05.859Z,924.48
2022-12-15T06:51:06.177Z,924.53
2022-12-15T06:52:07.046Z,924.54
2022-12-15T06:53:07.581Z,924.53
2022-12-15T06:54:07.920Z,924.52
2022-12-15T06:55:08.832Z,924.52
2022-12-15T06:56:09.725Z,924.55
2022-12-15T06:57:10.534Z,924.54
2022-12-15T06:58:10.724Z,924.5
2022-12-15T06:59:11.344Z,924.5
2022-12-15T07:00:11.981Z,924.5
2022-12-15T07:01:12.994Z,924.5
2022-12-15T07:02:14.208Z,924.5
2022-12-15T07:03:14.850Z,924.52
2022-12-15T07:04:15.210Z,924.53
2022-12-15T07:05:15.658Z,924.53
2022-12-15T07:06:15.886Z,924.55
2022-12-15T07:07:16.157Z,924.56
2022-12-15T07:08:16.817Z,924.6
2022-12-15T07:09:16.979Z,924.58
2022-12-15T07:10:17.893Z,924.57
2022-12-15T07:11:18.947Z,924.58
2022-12-15T07:12:19.447Z,924.59
2022-12-15T07:13:20.367Z,924.61
2022-12-15T07:14:20.488Z,924.64
2022-12-15T07:15:21.126Z,924.68
2022-12-15T07:16:22.139Z,924.62
2022-12-15T07:17:22.865Z,924.6
2022-12-15T07:18:23.755Z,924.62
2022-12-15T07:19:23.951Z,924.61
2022-12-15T07:20:28.717Z,924.6
2022-12-15T07:21:25.564Z,924.64
2022-12-15T07:22:26.211Z,924.63
2022-12-15T07:23:46.206Z,924.56
2022-12-15T07:24:27.600Z,924.58
2022-12-15T07:25:28.215Z,924.6
2022-12-15T07:26:29.147Z,924.66
2022-12-15T07:27:29.560Z,924.66
2022-12-15T07:28:30.186Z,924.65
2022-12-15T07:29:30.084Z,924.72
2022-12-15T07:30:35.190Z,924.73
2022-12-15T07:31:31.920Z,924.69
2022-12-15T07:32:32.235Z,924.68
2022-12-15T07:33:32.986Z,924.66
2022-12-15T07:34:33.394Z,924.61
2022-12-15T07:35:33.739Z,924.6
2022-12-15T07:36:34.214Z,924.63
2022-12-15T07:37:34.404Z,924.65
2022-12-15T07:38:34.838Z,924.72
2022-12-15T07:39:35.027Z,924.76
2022-12-15T07:40:35.933Z,924.71
2022-12-15T07:41:36.623Z,924.68
2022-12-15T07:42:37.548Z,924.61
2022-12-15T07:43:38.299Z,924.63
2022-12-15T07:44:38.093Z,924.64
2022-12-15T07:45:38.959Z,924.71
2022-12-15T07:46:39.130Z,924.67
2022-12-15T07:47:39.382Z,924.69
2022-12-15T07:48:40.306Z,924.73
2022-12-15T07:49:41.244Z,924.69
2022-12-15T07:50:42.147Z,924.7
2022-12-15T07:51:46.844Z,924.79
2022-12-15T07:52:47.772Z,924.75
2022-12-15T07:53:48.457Z,924.74
2022-12-15T07:54:49.413Z,924.76
2022-12-15T07:56:06.670Z,924.77
2022-12-15T07:56:51.225Z,924.78
2022-12-15T07:57:51.718Z,924.81
2022-12-15T07:58:52.629Z,924.83
2022-12-15T07:59:53.559Z,924.82
2022-12-15T08:00:54.088Z,924.87
2022-12-15T08:01:54.491Z,924.88
2022-12-15T08:02:54.606Z,924.92
2022-12-15T08:03:55.470Z,924.95
2022-12-15T08:04:55.825Z,924.92
2022-12-15T08:06:00.369Z,924.95
2022-12-15T08:06:56.373Z,924.95
2022-12-15T08:07:57.019Z,925
2022-12-15T08:08:57.931Z,925.03
2022-12-15T08:09:58.412Z,925.1
2022-12-15T08:10:59.025Z,925.11
2022-12-15T08:12:00.053Z,925.12
2022-12-15T08:13:01.002Z,925.11
2022-12-15T08:14:11.927Z,925.16
2022-12-15T08:15:07.855Z,925.18
2022-12-15T08:16:08.831Z,925.19
2022-12-15T08:17:09.242Z,925.2
2022-12-15T08:18:09.440Z,925.24
2022-12-15T08:19:10.062Z,925.28
2022-12-15T08:20:11.001Z,925.3
2022-12-15T08:21:11.939Z,925.3
2022-12-15T08:22:12.372Z,925.33
2022-12-15T08:23:12.854Z,925.36
2022-12-15T08:24:13.012Z,925.4
2022-12-15T08:25:13.206Z,925.41
2022-12-15T08:26:13.401Z,925.36
2022-12-15T08:27:14.495Z,925.39
2022-12-15T08:28:15.110Z,925.38
2022-12-15T08:29:49.300Z,925.37
2022-12-15T08:30:16.628Z,925.4
2022-12-15T08:31:17.259Z,925.44
2022-12-15T08:32:17.847Z,925.46
2022-12-15T08:33:18.264Z,925.51
2022-12-15T08:34:18.907Z,925.48
2022-12-15T08:35:39.206Z,925.45
2022-12-15T08:36:19.736Z,925.44
2022-12-15T08:37:20.268Z,925.42
2022-12-15T08:38:20.919Z,925.42
2022-12-15T08:39:21.183Z,925.41
2022-12-15T08:40:21.777Z,925.43
2022-12-15T08:41:22.270Z,925.46
2022-12-15T08:42:23.253Z,925.46
2022-12-15T08:43:24.157Z,925.46
2022-12-15T08:44:25.125Z,925.46
2022-12-15T08:45:25.338Z,925.47
2022-12-15T08:46:26.021Z,925.46
2022-12-15T08:47:26.153Z,925.43
2022-12-15T08:48:26.379Z,925.4
2022-12-15T08:49:26.576Z,925.44
2022-12-15T08:50:27.503Z,925.43
2022-12-15T08:51:28.200Z,925.48
2022-12-15T08:52:29.160Z,925.49
2022-12-15T08:53:31.506Z,925.49
2022-12-15T08:54:30.496Z,925.51
2022-12-15T08:55:30.847Z,925.51
2022-12-15T08:56:31.939Z,925.48
2022-12-15T08:57:32.176Z,925.51
2022-12-15T08:58:33.121Z,925.47
2022-12-15T08:59:33.327Z,925.47
2022-12-15T09:00:34.262Z,925.48
2022-12-15T09:01:35.342Z,925.47
2022-12-15T09:02:36.323Z,925.47
2022-12-15T09:03:37.281Z,925.42
2022-12-15T09:04:37.835Z,925.44
2022-12-15T09:05:38.362Z,925.47
2022-12-15T09:06:38.823Z,925.49
2022-12-15T09:07:39.260Z,925.52
2022-12-15T09:08:39.893Z,925.52
2022-12-15T09:09:40.644Z,925.49
2022-12-15T09:10:41.356Z,925.5
2022-12-15T09:11:42.413Z,925.46
2022-12-15T09:12:43.434Z,925.49
2022-12-15T09:13:43.928Z,925.49
2022-12-15T09:14:44.157Z,925.49
2022-12-15T09:16:08.706Z,925.45
2022-12-15T09:16:46.055Z,925.47
2022-12-15T09:17:46.801Z,925.43
2022-12-15T09:18:47.014Z,925.46
2022-12-15T09:19:47.252Z,925.43
2022-12-15T09:20:47.483Z,925.48
2022-12-15T09:21:47.666Z,925.4
2022-12-15T09:22:50.312Z,925.44
2022-12-15T09:23:48.744Z,925.43
2022-12-15T09:24:49.020Z,925.47
2022-12-15T09:25:49.487Z,925.46
2022-12-15T09:26:49.705Z,925.43
2022-12-15T09:27:50.124Z,925.42
2022-12-15T09:28:50.873Z,925.42
2022-12-15T09:29:51.144Z,925.41
2022-12-15T09:30:51.379Z,925.42
2022-12-15T09:31:51.744Z,925.35
2022-12-15T09:32:52.833Z,925.34
2022-12-15T09:33:53.069Z,925.4
2022-12-15T09:34:53.271Z,925.36
2022-12-15T09:35:53.908Z,925.34
2022-12-15T09:36:54.547Z,925.32
2022-12-15T09:37:55.065Z,925.31
2022-12-15T09:38:55.288Z,925.34
2022-12-15T09:39:55.850Z,925.33
2022-12-15T09:40:56.761Z,925.3
2022-12-15T09:41:56.962Z,925.3
2022-12-15T09:43:17.893Z,925.31
2022-12-15T09:43:59.519Z,925.27
2022-12-15T09:44:59.715Z,925.29
2022-12-15T09:45:59.932Z,925.23
2022-12-15T09:47:00.232Z,925.21
2022-12-15T09:48:01.138Z,925.14
2022-12-15T09:49:01.336Z,925.17
2022-12-15T09:50:01.552Z,925.19
2022-12-15T09:51:01.744Z,925.21
2022-12-15T09:52:07.320Z,925.22
2022-12-15T09:53:03.463Z,925.19
2022-12-15T09:54:07.003Z,925.18
2022-12-15T09:55:07.780Z,925.17
2022-12-15T09:56:08.815Z,925.16
2022-12-15T09:57:09.109Z,925.23
2022-12-15T09:58:11.221Z,925.25
2022-12-15T09:59:10.519Z,925.3
2022-12-15T10:00:11.026Z,925.25
2022-12-15T10:01:11.169Z,925.23
2022-12-15T10:02:11.592Z,925.18
2022-12-15T10:03:12.430Z,925.21
2022-12-15T10:04:13.424Z,925.22
2022-12-15T10:05:13.666Z,925.18
2022-12-15T10:08:17.186Z,925.04
2022-12-15T10:09:17.809Z,925.06
2022-12-15T10:10:18.436Z,924.99
2022-12-15T10:11:18.752Z,925.03
2022-12-15T10:12:19.662Z,925.03
2022-12-15T10:13:19.876Z,924.97
2022-12-15T10:14:20.839Z,925.01
2022-12-15T10:15:21.033Z,924.9
2022-12-15T10:16:21.758Z,924.89
2022-12-15T10:17:22.358Z,924.86
2022-12-15T10:18:22.989Z,924.87
2022-12-15T10:19:24.059Z,924.83
2022-12-15T10:20:24.676Z,924.79
2022-12-15T10:21:25.643Z,924.76
2022-12-15T10:22:26.341Z,924.8
2022-12-15T10:23:26.590Z,924.84
2022-12-15T10:25:00.124Z,924.9
2022-12-15T10:27:30.186Z,924.92
2022-12-15T10:28:31.013Z,924.88
2022-12-15T10:29:31.544Z,924.84
2022-12-15T10:32:39.390Z,924.88
2022-12-15T10:33:36.166Z,924.87
2022-12-15T10:34:36.320Z,924.86
2022-12-15T10:35:36.871Z,924.73
2022-12-15T10:36:37.341Z,924.7
2022-12-15T10:37:37.869Z,924.62
2022-12-15T10:38:38.275Z,924.58
2022-12-15T10:39:38.992Z,924.58
2022-12-15T10:40:39.523Z,924.57
2022-12-15T10:41:39.823Z,924.6
2022-12-15T10:42:40.248Z,924.6
2022-12-15T10:43:41.117Z,924.61
2022-12-15T10:46:44.356Z,924.56
2022-12-15T10:47:44.799Z,924.53
2022-12-15T10:48:48.530Z,924.54
2022-12-15T10:49:46.048Z,924.53
2022-12-15T10:50:46.303Z,924.53
2022-12-15T10:51:47.090Z,924.58
2022-12-15T10:52:47.983Z,924.57
2022-12-15T10:53:48.521Z,924.56
2022-12-15T10:54:48.671Z,924.52
2022-12-15T10:55:49.779Z,924.53
2022-12-15T10:56:50.330Z,924.54
2022-12-15T10:57:51.081Z,924.57
2022-12-15T10:58:51.752Z,924.58
2022-12-15T10:59:51.973Z,924.6
2022-12-15T11:00:52.218Z,924.61
2022-12-15T11:01:53.204Z,924.59
2022-12-15T11:02:54.265Z,924.57
2022-12-15T11:03:54.540Z,924.6
2022-12-15T11:04:55.159Z,924.59
2022-12-15T11:05:55.358Z,924.63
2022-12-15T11:06:55.554Z,924.56
2022-12-15T11:07:56.587Z,924.52
2022-12-15T11:08:57.389Z,924.55
2022-12-15T11:09:58.020Z,924.6
2022-12-15T11:10:58.933Z,924.55
2022-12-15T11:11:59.625Z,924.53
2022-12-15T11:12:59.846Z,924.62
2022-12-15T11:14:00.442Z,924.59
2022-12-15T11:15:01.397Z,924.58
2022-12-15T11:16:01.615Z,924.57
2022-12-15T11:17:02.541Z,924.61
2022-12-15T11:18:02.837Z,924.61
2022-12-15T11:19:03.069Z,924.57
2022-12-15T11:20:03.821Z,924.58
2022-12-15T11:21:03.885Z,924.59
2022-12-15T11:22:04.532Z,924.58
2022-12-15T11:23:04.757Z,924.58
2022-12-15T11:24:05.835Z,924.54
2022-12-15T11:25:06.318Z,924.58
2022-12-15T11:26:07.340Z,924.54
2022-12-15T11:27:07.817Z,924.5
2022-12-15T11:28:08.186Z,924.46
2022-12-15T11:29:08.855Z,924.44
2022-12-15T11:30:09.511Z,924.39
2022-12-15T11:31:09.868Z,924.39
2022-12-15T11:32:10.490Z,924.38
2022-12-15T11:33:10.818Z,924.34
2022-12-15T11:34:11.016Z,924.31
2022-12-15T11:35:11.282Z,924.29
2022-12-15T11:36:11.762Z,924.27
2022-12-15T11:37:12.688Z,924.25
2022-12-15T11:38:13.594Z,924.2
2022-12-15T11:39:14.054Z,924.19
2022-12-15T11:40:14.895Z,924.2
2022-12-15T11:41:15.003Z,924.2
2022-12-15T11:42:15.637Z,924.15
2022-12-15T11:43:15.832Z,924.16
2022-12-15T11:44:16.154Z,924.14
2022-12-15T11:45:16.797Z,924.15
2022-12-15T11:46:17.412Z,924.17
2022-12-15T11:47:17.628Z,924.17
2022-12-15T11:48:18.762Z,924.16
2022-12-15T11:49:19.440Z,924.15
2022-12-15T11:50:19.695Z,924.07
2022-12-15T11:51:19.775Z,924.07
2022-12-15T11:52:20.019Z,924.05
2022-12-15T11:53:20.515Z,923.99
2022-12-15T11:54:21.305Z,923.94
2022-12-15T11:55:25.864Z,923.93
2022-12-15T11:56:22.164Z,923.89
2022-12-15T11:57:22.390Z,923.83
2022-12-15T11:58:22.676Z,923.79
2022-12-15T11:59:23.483Z,923.75
2022-12-15T12:00:23.969Z,923.72
2022-12-15T12:01:24.907Z,923.73
2022-12-15T12:02:25.161Z,923.69
2022-12-15T12:03:25.802Z,923.72
2022-12-15T12:04:26.593Z,923.67
2022-12-15T12:05:27.506Z,923.68
2022-12-15T12:06:27.769Z,923.7
2022-12-15T12:07:28.682Z,923.71
2022-12-15T12:08:29.797Z,923.7
2022-12-15T12:09:29.920Z,923.69
2022-12-15T12:10:30.013Z,923.71
2022-12-15T12:11:30.223Z,923.71
2022-12-15T12:12:31.100Z,923.72
2022-12-15T12:13:32.189Z,923.74
2022-12-15T12:14:32.998Z,923.66
2022-12-15T12:15:33.551Z,923.72
2022-12-15T12:16:34.187Z,923.71
2022-12-15T12:17:34.674Z,923.67
2022-12-15T12:18:35.375Z,923.75
2022-12-15T12:19:35.809Z,923.72
2022-12-15T12:20:35.966Z,923.73
2022-12-15T12:21:36.616Z,923.73
2022-12-15T12:22:37.326Z,923.78
2022-12-15T12:23:38.099Z,923.77
2022-12-15T12:24:38.293Z,923.81
2022-12-15T12:25:39.177Z,923.76
2022-12-15T12:26:40.102Z,923.74
2022-12-15T12:27:40.504Z,923.75
2022-12-15T12:28:41.587Z,923.76
2022-12-15T12:29:42.070Z,923.7
2022-12-15T12:30:42.605Z,923.68
2022-12-15T12:31:42.798Z,923.65
2022-12-15T12:32:42.916Z,923.62
2022-12-15T12:33:43.463Z,923.57
2022-12-15T12:34:43.951Z,923.54
2022-12-15T12:35:44.906Z,923.5
2022-12-15T12:36:45.818Z,923.46
2022-12-15T12:37:46.306Z,923.46
2022-12-15T12:40:49.544Z,923.45
2022-12-15T12:41:50.565Z,923.43
2022-12-15T12:42:51.193Z,923.44
2022-12-15T12:43:52.208Z,923.47
2022-12-15T12:44:52.961Z,923.44
2022-12-15T12:45:53.955Z,923.43
2022-12-15T12:46:54.875Z,923.4
2022-12-15T12:47:55.377Z,923.43
2022-12-15T12:48:56.294Z,923.45